Astoria Regional Airport Astoria US
ICAO: KAST
IATA: AST
Category: Medium
Scheduled Services: No

Elevation: 15 ft
TransAlt. 18000 ft.

Airport Communications:
ASOS:135.375
SEATTLE CNTR:124.2
AIR CG:38.18
MC MINNVILLE RDO:122.3
CTAF/UNICOM:122.8

KAST Zoom In..

Runways:

(A) RW 08 length 5795 ft width 100 ft
---- / hdg 77

(B) RW 13 length 4996 ft width 100 ft
---- / hdg 135

(C) RW 26 length 5795 ft width 100 ft
ILS 109.50 / hdg 257

(D) RW 31 length 4996 ft width 100 ft
---- / hdg 315

Location; KAST
Day. 23 / Time. 14.55 Zulu
* Altimeter: 29.96
* Temperature: 07° c. 44.6°f.
* Wind from: 090° Speed 08 kn.
Dewpoint: 05° c.
Visibility: 8 Statute Miles.
Clouds: Overcast 3200 ft.
Conditions: Light Rain.

KAST 231455Z AUTO 09008KT 8SM -RA OVC032 07/05 A2996 RMK AO2 SLP146 P0005 60011 T00670050 56035


Wind From 090°
Speed 08 kn.

YouTube Music Video
 
jpsmedia.com for Web Design  worldairports.se 2018   terms of use